createdAt,value
2018-05-06T00:00:03.372Z,3.12
2018-05-06T00:02:30.882Z,2.70
2018-05-06T00:04:58.398Z,3.10
2018-05-06T00:07:25.954Z,3.62
2018-05-06T00:09:53.512Z,3.00
2018-05-06T00:12:21.008Z,3.00
2018-05-06T00:14:48.555Z,3.08
2018-05-06T00:17:16.046Z,2.80
2018-05-06T00:19:43.635Z,2.90
2018-05-06T00:22:11.146Z,3.05
2018-05-06T00:24:38.671Z,3.10
2018-05-06T00:27:06.163Z,2.80
2018-05-06T00:29:33.658Z,2.67
2018-05-06T00:32:02.039Z,3.20
2018-05-06T00:34:30.315Z,3.35
2018-05-06T00:36:58.605Z,2.90
2018-05-06T00:39:26.091Z,3.10
2018-05-06T00:41:53.600Z,3.23
2018-05-06T00:44:21.875Z,3.50
2018-05-06T00:46:50.172Z,3.10
2018-05-06T00:49:17.659Z,3.10
2018-05-06T00:51:45.148Z,3.17
2018-05-06T00:54:24.627Z,3.20
2018-05-06T00:56:52.127Z,3.20
2018-05-06T00:59:19.643Z,2.90
2018-05-06T01:01:47.160Z,3.58
2018-05-06T01:04:14.688Z,3.00
2018-05-06T01:06:42.180Z,2.80
2018-05-06T01:09:09.693Z,2.65
2018-05-06T01:11:37.184Z,3.10
2018-05-06T01:14:04.711Z,2.70
2018-05-06T01:16:32.199Z,2.80
2018-05-06T01:18:59.696Z,3.50
2018-05-06T01:21:28.095Z,3.10
2018-05-06T01:23:55.715Z,3.28
2018-05-06T01:26:23.226Z,3.20
2018-05-06T01:28:50.724Z,2.80
2018-05-06T01:31:18.257Z,3.00
2018-05-06T01:33:45.754Z,3.20
2018-05-06T01:36:14.051Z,3.22
2018-05-06T01:38:41.708Z,3.20
2018-05-06T01:41:09.968Z,3.50
2018-05-06T01:43:38.297Z,3.00
2018-05-06T01:46:06.514Z,3.20
2018-05-06T01:48:34.038Z,3.25
2018-05-06T01:51:01.531Z,3.28
2018-05-06T01:53:29.040Z,3.00
2018-05-06T01:55:56.547Z,3.20
2018-05-06T01:58:24.039Z,3.10
2018-05-06T02:00:51.641Z,3.05
2018-05-06T02:03:19.865Z,3.43
2018-05-06T02:05:47.380Z,3.50
2018-05-06T02:08:14.902Z,3.47
2018-05-06T02:10:42.439Z,4.00
2018-05-06T02:13:09.960Z,3.40
2018-05-06T02:15:37.454Z,3.70
2018-05-06T02:18:04.970Z,3.30
2018-05-06T02:20:32.580Z,3.67
2018-05-06T02:23:00.077Z,3.70
2018-05-06T02:25:27.564Z,3.10
2018-05-06T02:27:55.114Z,3.90
2018-05-06T02:30:24.126Z,3.30
2018-05-06T02:32:52.432Z,2.80
2018-05-06T02:35:19.977Z,3.53
2018-05-06T02:37:47.493Z,3.57
2018-05-06T02:40:15.000Z,3.40
2018-05-06T02:42:42.515Z,3.33
2018-05-06T02:45:11.543Z,3.70
2018-05-06T02:47:39.062Z,3.08
2018-05-06T02:50:06.559Z,3.60
2018-05-06T02:52:34.847Z,3.67
2018-05-06T02:55:02.363Z,3.60
2018-05-06T02:57:29.972Z,3.67
2018-05-06T02:59:57.469Z,4.00
2018-05-06T03:02:24.960Z,3.87
2018-05-06T03:04:53.250Z,3.70
2018-05-06T03:07:20.743Z,3.75
2018-05-06T03:09:48.267Z,4.07
2018-05-06T03:12:15.766Z,3.70
2018-05-06T03:14:43.274Z,3.60
2018-05-06T03:17:11.551Z,3.90
2018-05-06T03:19:39.828Z,3.47
2018-05-06T03:22:08.102Z,3.95
2018-05-06T03:24:36.355Z,3.90
2018-05-06T03:27:03.858Z,4.30
2018-05-06T03:29:37.863Z,4.10
2018-05-06T03:32:05.388Z,3.78
2018-05-06T03:34:32.899Z,4.10
2018-05-06T03:37:00.423Z,4.13
2018-05-06T03:39:28.698Z,3.90
2018-05-06T03:41:56.965Z,3.70
2018-05-06T03:44:25.256Z,3.70
2018-05-06T03:46:52.821Z,3.70
2018-05-06T03:49:20.335Z,3.30
2018-05-06T03:51:47.833Z,3.80
2018-05-06T03:54:15.355Z,3.60
2018-05-06T03:57:03.584Z,3.50
2018-05-06T03:59:43.051Z,3.80
2018-05-06T04:05:18.250Z,3.85
2018-05-06T04:07:45.738Z,4.20
2018-05-06T04:10:13.258Z,3.70
2018-05-06T04:12:40.757Z,4.40
2018-05-06T04:15:08.244Z,4.43
2018-05-06T04:17:36.521Z,3.43
2018-05-06T04:20:04.811Z,4.30
2018-05-06T04:22:32.309Z,3.83
2018-05-06T04:24:59.877Z,3.85
2018-05-06T04:27:27.503Z,3.80
2018-05-06T04:29:54.990Z,4.25
2018-05-06T04:32:22.512Z,3.80
2018-05-06T04:34:50.025Z,3.10
2018-05-06T04:37:17.532Z,3.30
2018-05-06T04:39:45.036Z,3.50
2018-05-06T04:42:12.542Z,3.33
2018-05-06T04:44:40.047Z,3.40
2018-05-06T04:47:07.601Z,3.20
2018-05-06T04:49:35.104Z,3.90
2018-05-06T04:52:03.387Z,3.33
2018-05-06T04:54:30.884Z,3.30
2018-05-06T04:56:58.416Z,3.67
2018-05-06T04:59:25.913Z,4.70
2018-05-06T05:01:53.418Z,3.42
2018-05-06T05:04:21.696Z,3.67
2018-05-06T05:06:49.191Z,3.50
2018-05-06T05:09:16.716Z,3.37
2018-05-06T05:11:44.218Z,3.37
2018-05-06T05:14:11.753Z,3.17
2018-05-06T05:16:39.258Z,2.90
2018-05-06T05:19:06.767Z,3.30
2018-05-06T05:21:34.288Z,3.10
2018-05-06T05:24:02.571Z,3.10
2018-05-06T05:26:30.859Z,3.00
2018-05-06T05:28:58.363Z,3.10
2018-05-06T05:31:25.872Z,3.15
2018-05-06T05:33:53.443Z,2.90
2018-05-06T05:36:20.965Z,2.70
2018-05-06T05:38:48.472Z,3.15
2018-05-06T05:41:15.992Z,2.90
2018-05-06T05:43:44.249Z,2.90
2018-05-06T05:46:11.764Z,3.17
2018-05-06T05:48:39.254Z,2.97
2018-05-06T05:51:06.773Z,3.00
2018-05-06T05:53:34.301Z,3.03
2018-05-06T05:56:02.562Z,3.20
2018-05-06T05:58:30.090Z,3.37
2018-05-06T06:00:57.584Z,3.10
2018-05-06T06:03:25.107Z,2.80
2018-05-06T06:05:52.597Z,3.57
2018-05-06T06:08:20.099Z,3.05
2018-05-06T06:10:47.620Z,3.40
2018-05-06T06:13:15.904Z,3.00
2018-05-06T06:15:44.193Z,3.35
2018-05-06T06:18:11.693Z,3.50
2018-05-06T06:20:39.206Z,3.40
2018-05-06T06:23:06.706Z,3.10
2018-05-06T06:25:34.231Z,3.20
2018-05-06T06:28:02.495Z,3.10
2018-05-06T06:30:30.002Z,3.28
2018-05-06T06:32:57.540Z,2.90
2018-05-06T06:35:25.049Z,3.60
2018-05-06T06:37:52.555Z,3.00
2018-05-06T06:40:20.055Z,3.20
2018-05-06T06:42:47.585Z,3.30
2018-05-06T06:45:15.091Z,3.10
2018-05-06T06:47:43.364Z,2.92
2018-05-06T06:50:11.663Z,3.00
2018-05-06T06:52:39.227Z,3.08
2018-05-06T06:55:06.717Z,2.80
2018-05-06T06:57:34.210Z,2.78
2018-05-06T07:00:01.737Z,5.40
2018-05-06T07:02:29.247Z,3.00
2018-05-06T07:04:57.519Z,4.90
2018-05-06T07:07:25.019Z,3.33
2018-05-06T07:09:52.539Z,2.70
2018-05-06T07:12:20.826Z,2.40
2018-05-06T07:14:48.331Z,2.80
2018-05-06T07:17:15.855Z,2.50
2018-05-06T07:19:43.348Z,2.50
2018-05-06T07:22:11.824Z,2.80
2018-05-06T07:24:39.324Z,2.80
2018-05-06T07:27:07.601Z,2.62
2018-05-06T07:29:35.111Z,2.70
2018-05-06T07:32:02.604Z,2.50
2018-05-06T07:34:30.887Z,2.17
2018-05-06T07:36:59.143Z,2.50
2018-05-06T07:39:26.660Z,2.20
2018-05-06T07:41:54.169Z,2.33
2018-05-06T07:44:22.453Z,2.30
2018-05-06T07:46:50.716Z,2.37
2018-05-06T07:49:19.007Z,2.33
2018-05-06T07:51:47.277Z,3.60
2018-05-06T07:54:14.799Z,2.50
2018-05-06T07:56:42.323Z,2.30
2018-05-06T07:59:09.830Z,2.30
2018-05-06T08:01:37.368Z,2.10
2018-05-06T08:04:04.861Z,2.10
2018-05-06T08:06:33.258Z,2.00
2018-05-06T08:09:01.537Z,1.90
2018-05-06T08:11:29.790Z,2.00
2018-05-06T08:13:57.311Z,2.20
2018-05-06T08:16:24.888Z,1.70
2018-05-06T08:18:52.343Z,1.50
2018-05-06T08:21:19.838Z,2.10
2018-05-06T08:23:48.130Z,1.90
2018-05-06T08:26:15.621Z,1.60
2018-05-06T08:28:43.144Z,1.80
2018-05-06T08:31:10.764Z,1.90
2018-05-06T08:33:38.290Z,1.87
2018-05-06T08:36:05.778Z,1.77
2018-05-06T08:38:33.272Z,1.90
2018-05-06T08:41:01.548Z,1.90
2018-05-06T08:43:29.801Z,1.50
2018-05-06T08:45:57.315Z,1.60
2018-05-06T08:48:24.817Z,1.70
2018-05-06T08:50:53.126Z,1.85
2018-05-06T08:53:20.668Z,1.60
2018-05-06T08:55:48.947Z,1.65
2018-05-06T08:58:17.231Z,1.60
2018-05-06T09:00:44.719Z,1.60
2018-05-06T09:03:12.239Z,2.00
2018-05-06T09:05:40.506Z,2.00
2018-05-06T09:08:08.027Z,1.70
2018-05-06T09:10:35.523Z,2.12
2018-05-06T09:13:03.802Z,2.10
2018-05-06T09:15:32.083Z,1.80
2018-05-06T09:20:34.223Z,1.85
2018-05-06T09:23:01.752Z,1.80
2018-05-06T09:25:29.309Z,1.80
2018-05-06T09:27:57.674Z,1.90
2018-05-06T09:30:25.212Z,2.08
2018-05-06T09:32:53.503Z,1.80
2018-05-06T09:35:20.999Z,1.70
2018-05-06T09:37:48.552Z,2.10
2018-05-06T09:40:16.040Z,1.67
2018-05-06T09:42:43.535Z,1.60
2018-05-06T09:45:11.072Z,1.60
2018-05-06T09:47:39.388Z,1.95
2018-05-06T09:50:06.922Z,2.00
2018-05-06T09:52:34.423Z,1.80
2018-05-06T09:55:01.915Z,1.90
2018-05-06T09:57:29.431Z,2.10
2018-05-06T09:59:56.930Z,1.85
2018-05-06T10:02:24.543Z,2.60
2018-05-06T10:04:52.032Z,2.30
2018-05-06T10:07:19.524Z,1.90
2018-05-06T10:09:47.799Z,1.90
2018-05-06T10:12:16.051Z,1.70
2018-05-06T10:14:43.653Z,2.00
2018-05-06T10:17:11.218Z,1.80
2018-05-06T10:19:38.772Z,1.73
2018-05-06T10:22:06.289Z,2.30
2018-05-06T10:24:33.790Z,1.90
2018-05-06T10:27:01.296Z,1.90
2018-05-06T10:29:28.814Z,1.70
2018-05-06T10:31:56.316Z,1.73
2018-05-06T10:34:23.844Z,1.95
2018-05-06T10:36:51.347Z,1.50
2018-05-06T10:39:18.861Z,1.60
2018-05-06T10:41:46.397Z,1.73
2018-05-06T10:44:13.939Z,2.12
2018-05-06T10:46:42.232Z,1.80
2018-05-06T10:49:09.883Z,1.60
2018-05-06T10:51:37.321Z,1.90
2018-05-06T10:54:05.619Z,1.60
2018-05-06T10:56:33.136Z,1.80
2018-05-06T10:59:00.627Z,2.00
2018-05-06T11:01:28.906Z,1.58
2018-05-06T11:03:56.405Z,1.60
2018-05-06T11:06:23.930Z,1.60
2018-05-06T11:08:51.447Z,1.52
2018-05-06T11:11:18.966Z,1.60
2018-05-06T11:13:46.460Z,1.87
2018-05-06T11:16:13.966Z,1.70
2018-05-06T11:18:41.481Z,1.53
2018-05-06T11:21:08.978Z,1.90
2018-05-06T11:23:36.528Z,1.87
2018-05-06T11:26:04.819Z,1.90
2018-05-06T11:28:32.331Z,1.77
2018-05-06T11:30:59.853Z,1.77
2018-05-06T11:33:27.366Z,1.80
2018-05-06T11:35:54.854Z,1.87
2018-05-06T11:38:22.367Z,1.70
2018-05-06T11:40:49.867Z,1.80
2018-05-06T11:43:17.391Z,1.80
2018-05-06T11:45:44.967Z,1.60
2018-05-06T11:48:13.277Z,1.73
2018-05-06T11:50:40.760Z,1.80
2018-05-06T11:53:08.271Z,1.40
2018-05-06T11:55:35.785Z,1.95
2018-05-06T11:58:03.274Z,1.70
2018-05-06T12:00:31.549Z,1.60
2018-05-06T12:02:59.808Z,1.50
2018-05-06T12:05:28.092Z,1.70
2018-05-06T12:07:55.583Z,1.87
2018-05-06T12:10:23.103Z,1.40
2018-05-06T12:12:50.591Z,1.70
2018-05-06T12:15:18.096Z,1.60
2018-05-06T12:17:45.620Z,1.60
2018-05-06T12:20:13.112Z,1.70
2018-05-06T12:22:40.627Z,1.70
2018-05-06T12:25:08.161Z,1.50
2018-05-06T12:27:36.432Z,1.80
2018-05-06T12:30:04.710Z,1.60
2018-05-06T12:32:32.971Z,1.48
2018-05-06T12:35:00.483Z,1.40
2018-05-06T12:37:28.004Z,1.70
2018-05-06T12:39:56.267Z,1.40
2018-05-06T12:42:23.772Z,1.65
2018-05-06T12:44:51.295Z,1.70
2018-05-06T12:47:19.656Z,1.30
2018-05-06T12:49:47.095Z,1.87
2018-05-06T12:52:14.603Z,1.65
2018-05-06T12:54:42.095Z,1.80
2018-05-06T12:57:09.619Z,1.70
2018-05-06T12:59:37.113Z,1.70
2018-05-06T13:02:04.623Z,1.30
2018-05-06T13:04:32.901Z,1.50
2018-05-06T13:07:01.155Z,1.70
2018-05-06T13:09:28.671Z,1.70
2018-05-06T13:11:56.164Z,1.70
2018-05-06T13:14:23.684Z,1.52
2018-05-06T13:16:51.186Z,1.50
2018-05-06T13:19:18.707Z,1.60
2018-05-06T13:21:46.201Z,1.40
2018-05-06T13:24:13.722Z,1.60
2018-05-06T13:26:41.216Z,1.30
2018-05-06T13:29:08.713Z,1.77
2018-05-06T13:31:36.238Z,1.67
2018-05-06T13:34:03.728Z,1.30
2018-05-06T13:36:31.230Z,2.30
2018-05-06T13:38:58.759Z,1.75
2018-05-06T13:41:26.271Z,1.80
2018-05-06T13:43:53.819Z,2.00
2018-05-06T13:46:21.306Z,1.80
2018-05-06T13:48:49.596Z,2.00
2018-05-06T13:51:17.110Z,1.60
2018-05-06T13:53:44.610Z,1.48
2018-05-06T13:56:12.132Z,1.40
2018-05-06T13:58:39.629Z,1.92
2018-05-06T14:01:07.194Z,2.20
2018-05-06T14:03:34.697Z,2.20
2018-05-06T14:06:02.217Z,2.40
2018-05-06T14:08:29.720Z,1.60
2018-05-06T14:10:57.248Z,2.40
2018-05-06T14:13:24.878Z,3.17
2018-05-06T14:15:52.385Z,2.90
2018-05-06T14:18:19.880Z,1.95
2018-05-06T14:20:48.163Z,1.55
2018-05-06T14:23:16.439Z,1.45
2018-05-06T14:25:44.730Z,1.80
2018-05-06T14:28:12.227Z,2.00
2018-05-06T14:30:39.744Z,1.60
2018-05-06T14:33:07.304Z,2.62
2018-05-06T14:35:34.819Z,2.95
2018-05-06T14:38:02.321Z,2.10
2018-05-06T14:40:29.849Z,1.60
2018-05-06T14:42:57.353Z,1.67
2018-05-06T14:45:24.899Z,3.00
2018-05-06T14:48:04.543Z,2.35
2018-05-06T14:50:32.051Z,2.45
2018-05-06T14:52:59.650Z,2.65
2018-05-06T14:55:27.159Z,1.70
2018-05-06T14:57:54.683Z,2.17
2018-05-06T15:00:22.207Z,1.50
2018-05-06T15:02:50.503Z,2.70
2018-05-06T15:05:18.000Z,2.00
2018-05-06T15:07:45.511Z,1.60
2018-05-06T15:10:13.796Z,1.83
2018-05-06T15:12:41.327Z,1.67
2018-05-06T15:15:08.819Z,1.67
2018-05-06T15:17:36.348Z,1.23
2018-05-06T15:20:04.618Z,1.58
2018-05-06T15:22:32.110Z,3.80
2018-05-06T15:24:59.625Z,1.42
2018-05-06T15:27:27.118Z,2.10
2018-05-06T15:29:54.630Z,1.85
2018-05-06T15:32:22.144Z,1.60
2018-05-06T15:34:49.688Z,1.60
2018-05-06T15:37:17.958Z,1.40
2018-05-06T15:39:46.260Z,1.90
2018-05-06T15:42:13.753Z,1.93
2018-05-06T15:44:41.253Z,2.50
2018-05-06T15:47:09.531Z,2.25
2018-05-06T15:49:37.813Z,2.20
2018-05-06T15:52:05.327Z,1.60
2018-05-06T15:54:32.828Z,1.60
2018-05-06T15:57:00.364Z,1.55
2018-05-06T15:59:27.876Z,1.77
2018-05-06T16:02:07.599Z,1.50
2018-05-06T16:04:35.093Z,2.00
2018-05-06T16:07:02.586Z,1.75
2018-05-06T16:09:30.874Z,2.72
2018-05-06T16:11:59.203Z,2.60
2018-05-06T16:14:27.436Z,1.50
2018-05-06T16:16:54.991Z,1.80
2018-05-06T16:19:22.516Z,2.20
2018-05-06T16:21:50.040Z,1.67
2018-05-06T16:24:17.540Z,1.50
2018-05-06T16:26:45.176Z,1.60
2018-05-06T16:29:12.583Z,5.30
2018-05-06T16:31:40.962Z,2.20
2018-05-06T16:34:08.468Z,1.90
2018-05-06T16:36:35.970Z,1.80
2018-05-06T16:39:04.256Z,2.62
2018-05-06T16:41:31.825Z,2.12
2018-05-06T16:44:00.185Z,2.30
2018-05-06T16:46:28.479Z,2.60
2018-05-06T16:48:56.034Z,2.62
2018-05-06T16:51:23.535Z,2.50
2018-05-06T16:53:51.057Z,2.45
2018-05-06T16:56:18.551Z,2.30
2018-05-06T16:58:46.083Z,2.08
2018-05-06T17:01:13.593Z,2.08
2018-05-06T17:03:41.106Z,1.60
2018-05-06T17:06:08.647Z,1.48
2018-05-06T17:08:36.152Z,1.52
2018-05-06T17:11:03.675Z,1.40
2018-05-06T17:13:31.181Z,1.23
2018-05-06T17:15:59.474Z,1.70
2018-05-06T17:18:27.744Z,1.40
2018-05-06T17:20:56.046Z,1.45
2018-05-06T17:23:23.555Z,1.65
2018-05-06T17:25:51.074Z,1.62
2018-05-06T17:28:18.573Z,1.73
2018-05-06T17:30:46.092Z,1.77
2018-05-06T17:33:13.599Z,1.77
2018-05-06T17:35:41.092Z,1.93
2018-05-06T17:38:08.615Z,2.00
2018-05-06T17:40:36.138Z,1.70
2018-05-06T17:43:03.660Z,1.40
2018-05-06T17:45:31.423Z,1.90
2018-05-06T17:47:59.705Z,1.50
2018-05-06T17:50:27.279Z,1.20
2018-05-06T17:52:54.800Z,1.50
2018-05-06T17:55:23.062Z,1.50
2018-05-06T17:57:52.063Z,1.90
2018-05-06T18:00:19.585Z,1.62
2018-05-06T18:02:47.107Z,1.95
2018-05-06T18:05:14.603Z,1.77
2018-05-06T18:07:42.141Z,1.70
2018-05-06T18:10:09.639Z,1.40
2018-05-06T18:12:37.172Z,2.10
2018-05-06T18:15:04.680Z,1.83
2018-05-06T18:17:32.972Z,1.65
2018-05-06T18:20:00.482Z,1.25
2018-05-06T18:22:27.974Z,2.00
2018-05-06T18:24:55.515Z,1.42
2018-05-06T18:27:23.027Z,2.08
2018-05-06T18:29:50.583Z,2.00
2018-05-06T18:32:18.124Z,2.67
2018-05-06T18:34:45.622Z,2.40
2018-05-06T18:37:13.137Z,2.10
2018-05-06T18:39:40.694Z,2.00
2018-05-06T18:42:08.951Z,2.10
2018-05-06T18:44:36.480Z,2.70
2018-05-06T18:47:04.062Z,2.30
2018-05-06T18:49:32.452Z,2.20
2018-05-06T18:52:00.730Z,2.40
2018-05-06T18:54:28.990Z,2.40
2018-05-06T18:56:56.505Z,2.20
2018-05-06T18:59:24.051Z,2.50
2018-05-06T19:01:51.571Z,1.90
2018-05-06T19:04:19.172Z,2.20
2018-05-06T19:06:46.704Z,1.80
2018-05-06T19:09:14.967Z,2.25
2018-05-06T19:11:43.272Z,2.10
2018-05-06T19:14:10.782Z,1.80
2018-05-06T19:16:38.295Z,3.37
2018-05-06T19:19:05.811Z,2.17
2018-05-06T19:21:34.831Z,2.00
2018-05-06T19:24:03.115Z,1.58
2018-05-06T19:26:30.629Z,2.62
2018-05-06T19:28:59.664Z,3.03
2018-05-06T19:31:27.175Z,2.15
2018-05-06T19:33:54.670Z,2.60
2018-05-06T19:36:22.960Z,2.40
2018-05-06T19:38:50.455Z,3.50
2018-05-06T19:41:17.963Z,4.50
2018-05-06T19:43:46.229Z,2.37
2018-05-06T19:46:14.528Z,3.27
2018-05-06T19:48:42.116Z,2.30
2018-05-06T19:51:09.622Z,2.87
2018-05-06T19:53:37.136Z,2.62
2018-05-06T19:56:04.664Z,2.35
2018-05-06T19:58:32.175Z,2.40
2018-05-06T20:00:59.693Z,2.03
2018-05-06T20:03:27.235Z,1.80
2018-05-06T20:05:54.739Z,2.00
2018-05-06T20:08:22.251Z,2.00
2018-05-06T20:10:49.748Z,2.23
2018-05-06T20:13:17.483Z,1.80
2018-05-06T20:15:44.978Z,1.87
2018-05-06T20:18:12.471Z,1.65
2018-05-06T20:20:40.752Z,2.10
2018-05-06T20:23:09.014Z,1.90
2018-05-06T20:25:37.296Z,2.00
2018-05-06T20:28:05.562Z,2.40
2018-05-06T20:30:33.093Z,2.20
2018-05-06T20:33:00.591Z,2.00
2018-05-06T20:35:28.880Z,2.10
2018-05-06T20:37:57.143Z,2.20
2018-05-06T20:40:25.426Z,2.40
2018-05-06T20:42:53.711Z,2.60
2018-05-06T20:45:21.982Z,2.28
2018-05-06T20:47:50.259Z,2.20
2018-05-06T20:50:18.522Z,2.33
2018-05-06T20:52:46.807Z,2.65
2018-05-06T20:55:14.348Z,2.30
2018-05-06T20:57:41.859Z,2.22
2018-05-06T21:00:09.346Z,2.20
2018-05-06T21:02:36.839Z,2.10
2018-05-06T21:05:05.131Z,2.30
2018-05-06T21:07:32.632Z,2.20
2018-05-06T21:10:00.130Z,2.00
2018-05-06T21:12:28.411Z,2.22
2018-05-06T21:14:55.913Z,2.60
2018-05-06T21:17:23.423Z,2.90
2018-05-06T21:19:51.683Z,1.90
2018-05-06T21:22:19.200Z,2.10
2018-05-06T21:24:46.720Z,2.30
2018-05-06T21:27:14.994Z,2.80
2018-05-06T21:29:43.275Z,2.00
2018-05-06T21:32:11.555Z,2.40
2018-05-06T21:34:39.054Z,2.40
2018-05-06T21:37:06.673Z,2.30
2018-05-06T21:39:34.114Z,2.70
2018-05-06T21:42:02.383Z,2.17
2018-05-06T21:44:29.887Z,2.67
2018-05-06T21:46:57.384Z,2.55
2018-05-06T21:49:24.895Z,2.50
2018-05-06T21:51:52.395Z,2.40
2018-05-06T21:54:19.903Z,2.30
2018-05-06T21:56:47.416Z,2.40
2018-05-06T21:59:14.903Z,2.40
2018-05-06T22:04:17.791Z,2.78
2018-05-06T22:06:46.090Z,1.90
2018-05-06T22:09:13.601Z,2.10
2018-05-06T22:11:41.124Z,2.53
2018-05-06T22:14:08.615Z,2.60
2018-05-06T22:16:36.121Z,2.45
2018-05-06T22:19:03.635Z,2.25
2018-05-06T22:21:31.131Z,2.42
2018-05-06T22:23:59.506Z,2.67
2018-05-06T22:26:27.791Z,2.40
2018-05-06T22:28:55.348Z,2.50
2018-05-06T22:31:23.610Z,2.42
2018-05-06T22:33:51.887Z,2.58
2018-05-06T22:36:20.164Z,2.40
2018-05-06T22:38:48.471Z,2.30
2018-05-06T22:41:15.978Z,2.28
2018-05-06T22:43:43.494Z,2.45
2018-05-06T22:46:11.007Z,2.33
2018-05-06T22:48:39.299Z,2.70
2018-05-06T22:51:07.574Z,2.60
2018-05-06T22:53:35.834Z,2.80
2018-05-06T22:56:03.354Z,2.90
2018-05-06T22:58:31.698Z,2.90
2018-05-06T23:00:59.208Z,2.78
2018-05-06T23:03:26.704Z,2.57
2018-05-06T23:05:54.994Z,2.40
2018-05-06T23:08:22.507Z,2.45
2018-05-06T23:10:50.028Z,2.53
2018-05-06T23:13:17.524Z,3.03
2018-05-06T23:15:45.076Z,2.83
2018-05-06T23:18:12.563Z,2.67
2018-05-06T23:20:40.857Z,2.92
2018-05-06T23:23:08.351Z,2.70
2018-05-06T23:25:35.844Z,2.70
2018-05-06T23:28:03.431Z,2.77
2018-05-06T23:30:30.992Z,3.03
2018-05-06T23:32:58.507Z,3.10
2018-05-06T23:35:27.583Z,3.40
2018-05-06T23:37:55.810Z,3.40
2018-05-06T23:40:23.304Z,3.57
2018-05-06T23:42:50.816Z,3.20
2018-05-06T23:45:19.090Z,3.05
2018-05-06T23:47:47.373Z,2.80
2018-05-06T23:50:15.657Z,3.22
2018-05-06T23:52:43.920Z,2.92
2018-05-06T23:55:12.208Z,3.20
2018-05-06T23:57:39.727Z,3.37
